Terminal Aerodrome Forecast
Issued by NWS

Home | Current Version | Previous Version | Text Only | Print | Product List | Glossary On
Versions: 1 2 3 4 5 6 7 8 9 10 11 12 13 14 15 16 17 18 19 20 21 22 23 24 25 26
672
FTAK31 PAFA 240539
TAFAOR
TAF
PAOR 240539Z 2406/2506 31010G16KT P6SM SKC
     FM241200 31007KT P6SM BKN050 BKN100
     FM242100 32013G18KT P6SM -RA OVC025
     FM250000 32015KT P6SM OVC050=

USA.gov is the U.S. government's official web portal to all federal, state and local government web resources and services.